Time;durP1;ratioP1;P1;durP2;ratioP2;P2;SDS_P1;SDS_P2;PMS_P1;PMS_P2;Temp;Humidity;BMP_temperature;BMP_pressure;BME280_temperature;BME280_humidity;BME280_pressure;Samples;Min_cycle;Max_cycle;Signal;HPM_P1;HPM_P2
2022/07/21 00:00:27;;;;;;;11.35;9.10;;;;;;;19.96;79.00;101688.97;5090409;28;20456;-72
2022/07/21 00:02:54;;;;;;;10.50;9.40;;;;;;;19.93;79.05;101686.47;5088334;28;20147;-72
2022/07/21 00:05:19;;;;;;;10.43;9.13;;;;;;;19.92;78.78;101676.81;5091124;28;20016;-71
2022/07/21 00:07:45;;;;;;;11.63;9.55;;;;;;;19.94;79.39;101685.53;5092463;28;20082;-72
2022/07/21 00:10:11;;;;;;;13.73;9.35;;;;;;;19.90;79.01;101692.75;5089359;28;20030;-71
2022/07/21 00:12:37;;;;;;;10.77;9.27;;;;;;;19.85;79.59;101690.34;5090626;28;20032;-71
2022/07/21 00:15:04;;;;;;;11.48;9.50;;;;;;;19.82;79.24;101685.22;5089342;28;20471;-71
2022/07/21 00:17:29;;;;;;;11.80;9.57;;;;;;;19.74;80.02;101678.56;5088050;28;20035;-72
2022/07/21 00:19:55;;;;;;;10.43;8.95;;;;;;;19.68;80.03;101677.06;5092365;28;20102;-71
2022/07/21 00:22:20;;;;;;;15.07;9.20;;;;;;;19.69;80.35;101683.25;5091998;28;20034;-71
2022/07/21 00:24:45;;;;;;;14.88;9.20;;;;;;;19.62;80.47;101687.94;5091927;28;20035;-71
2022/07/21 00:27:11;;;;;;;12.65;9.57;;;;;;;19.55;81.15;101686.50;5091763;28;20452;-71
2022/07/21 00:29:36;;;;;;;13.50;9.63;;;;;;;19.58;80.79;101686.34;5090956;28;20028;-71
2022/07/21 00:32:03;;;;;;;12.95;9.65;;;;;;;19.53;81.33;101680.44;5091300;28;20217;-71
2022/07/21 00:34:29;;;;;;;13.35;9.68;;;;;;;19.48;81.71;101677.16;5092833;28;20024;-71
2022/07/21 00:36:54;;;;;;;13.23;9.52;;;;;;;19.50;81.91;101685.88;5093025;28;20032;-71
2022/07/21 00:39:19;;;;;;;10.95;9.85;;;;;;;19.47;81.62;101692.16;5104741;28;20063;-71
2022/07/21 00:41:45;;;;;;;13.95;10.15;;;;;;;19.51;81.68;101690.22;5093732;28;20490;-72
2022/07/21 00:44:24;;;;;;;11.60;9.90;;;;;;;19.56;80.60;101693.53;5092858;28;20023;-71
2022/07/21 00:46:50;;;;;;;13.30;10.15;;;;;;;19.50;81.83;101686.72;5090653;28;20040;-71
2022/07/21 00:49:17;;;;;;;12.98;10.63;;;;;;;19.47;82.00;101683.38;5091195;28;20032;-72
2022/07/21 00:51:43;;;;;;;13.82;10.23;;;;;;;19.48;82.36;101691.22;5091333;28;20027;-71
2022/07/21 00:54:08;;;;;;;11.75;10.52;;;;;;;19.48;81.84;101685.06;5092011;28;20032;-72
2022/07/21 00:56:34;;;;;;;12.45;11.05;;;;;;;19.39;82.09;101681.06;5088670;28;20036;-72
2022/07/21 00:59:00;;;;;;;13.00;10.65;;;;;;;19.35;82.72;101682.16;5089078;28;20039;-72
2022/07/21 01:01:25;;;;;;;12.88;10.93;;;;;;;19.34;83.19;101675.16;5089565;28;20115;-71
2022/07/21 01:03:50;;;;;;;11.93;10.75;;;;;;;19.34;82.63;101678.66;5101447;28;20038;-71
2022/07/21 01:06:15;;;;;;;12.38;11.07;;;;;;;19.34;82.65;101677.81;5089204;28;20032;-71
2022/07/21 01:08:41;;;;;;;12.45;10.88;;;;;;;19.31;82.90;101672.66;5081634;28;20391;-71
2022/07/21 01:11:06;;;;;;;13.80;10.98;;;;;;;19.21;83.12;101658.16;5099029;28;20024;-71
2022/07/21 01:13:32;;;;;;;12.07;10.10;;;;;;;19.14;84.13;101660.22;5087449;28;20441;-71
2022/07/21 01:15:57;;;;;;;12.50;10.73;;;;;;;19.16;83.43;101661.88;5093825;28;20455;-71
2022/07/21 01:18:22;;;;;;;13.60;11.40;;;;;;;19.14;83.84;101662.88;5108329;28;20028;-71
2022/07/21 01:20:53;;;;;;;14.63;11.30;;;;;;;19.05;84.35;101648.28;5098771;28;20107;-71
2022/07/21 01:23:20;;;;;;;12.43;11.15;;;;;;;19.10;84.56;101648.94;5097358;28;20024;-71
2022/07/21 01:25:51;;;;;;;14.52;11.77;;;;;;;19.06;84.40;101662.34;5105091;28;20437;-71
2022/07/21 01:28:17;;;;;;;16.13;12.15;;;;;;;19.02;84.68;101663.44;5096455;28;20363;-71
2022/07/21 01:30:42;;;;;;;12.73;11.43;;;;;;;19.03;84.84;101658.09;5089227;28;20031;-71
2022/07/21 01:33:08;;;;;;;13.07;11.27;;;;;;;19.03;85.57;101658.09;5105264;28;20825;-71
2022/07/21 01:35:33;;;;;;;13.20;11.50;;;;;;;19.06;85.10;101660.56;5103235;28;20099;-71
2022/07/21 01:37:59;;;;;;;14.13;11.65;;;;;;;19.13;85.43;101663.81;5105833;28;20035;-71
2022/07/21 01:43:09;;;;;;;15.27;12.45;;;;;;;19.13;84.49;101661.16;5091044;28;20042;-71
2022/07/21 01:45:34;;;;;;;14.52;11.50;;;;;;;19.11;84.89;101658.56;5106475;28;20036;-71
2022/07/21 01:47:59;;;;;;;14.38;11.40;;;;;;;19.10;85.31;101658.66;5094893;28;20063;-71
2022/07/21 01:50:28;;;;;;;15.05;11.35;;;;;;;19.12;85.06;101670.00;5090576;28;20019;-71
2022/07/21 01:52:55;;;;;;;12.88;11.02;;;;;;;19.16;84.58;101669.81;5092935;28;20077;-72
2022/07/21 01:55:21;;;;;;;12.88;11.48;;;;;;;19.22;84.82;101660.72;5097887;28;20425;-71
2022/07/21 01:57:46;;;;;;;13.77;11.30;;;;;;;19.20;84.75;101664.38;5091861;28;20097;-71
2022/07/21 02:00:12;;;;;;;13.85;11.95;;;;;;;19.23;84.79;101667.75;5095175;28;20043;-71
2022/07/21 02:02:37;;;;;;;14.30;11.98;;;;;;;19.20;84.57;101669.66;5096317;28;20024;-71
2022/07/21 02:05:02;;;;;;;14.80;12.45;;;;;;;19.14;84.78;101662.88;5095388;28;20028;-71
2022/07/21 02:07:28;;;;;;;16.20;11.63;;;;;;;19.17;85.66;101660.09;5092552;28;20107;-71
2022/07/21 02:09:53;;;;;;;13.43;11.73;;;;;;;19.23;85.29;101654.53;5101057;28;20020;-71
2022/07/21 02:12:18;;;;;;;14.45;12.05;;;;;;;19.19;84.87;101658.22;5089310;28;20463;-71
2022/07/21 02:14:44;;;;;;;14.15;12.57;;;;;;;19.13;84.95;101669.09;5102814;28;20070;-72
2022/07/21 02:17:09;;;;;;;14.35;12.50;;;;;;;19.08;85.84;101657.88;5104389;28;20031;-71
2022/07/21 02:19:34;;;;;;;13.90;11.65;;;;;;;19.07;86.05;101654.38;5091305;28;20059;-71
2022/07/21 02:21:59;;;;;;;14.48;11.63;;;;;;;19.12;85.88;101656.78;5102274;28;20023;-71
2022/07/21 02:24:25;;;;;;;15.27;12.70;;;;;;;19.10;85.56;101659.50;5095763;28;20066;-71
2022/07/21 02:26:50;;;;;;;13.75;12.13;;;;;;;19.12;86.08;101654.16;5102843;28;20038;-71
2022/07/21 02:29:16;;;;;;;14.68;12.45;;;;;;;19.09;85.78;101646.34;5096766;28;20043;-71
2022/07/21 02:31:41;;;;;;;14.63;12.50;;;;;;;19.03;86.31;101646.63;5096570;28;20058;-71
2022/07/21 02:34:06;;;;;;;15.90;13.07;;;;;;;19.01;86.18;101648.50;5111352;28;20051;-72
2022/07/21 02:36:32;;;;;;;16.80;13.27;;;;;;;19.01;86.12;101651.16;5101868;28;20028;-71
2022/07/21 02:38:57;;;;;;;17.15;13.27;;;;;;;18.94;86.86;101651.44;5086852;28;20036;-71
2022/07/21 02:41:23;;;;;;;14.95;13.40;;;;;;;18.95;86.88;101654.94;5097815;28;20382;-71
2022/07/21 02:43:48;;;;;;;17.17;13.52;;;;;;;18.91;86.98;101659.50;5095727;28;20030;-71
2022/07/21 02:46:13;;;;;;;19.92;13.90;;;;;;;18.95;86.92;101641.72;5098638;28;20039;-71
2022/07/21 02:48:39;;;;;;;15.35;13.60;;;;;;;18.98;86.95;101638.94;5108577;28;20032;-71
2022/07/21 02:51:04;;;;;;;15.07;13.48;;;;;;;18.98;87.26;101646.00;5096201;28;20028;-71
2022/07/21 02:53:29;;;;;;;18.38;14.02;;;;;;;18.99;87.14;101639.78;5106292;28;20056;-71
2022/07/21 02:55:55;;;;;;;16.58;13.95;;;;;;;18.96;86.93;101646.06;5096258;28;20048;-71
2022/07/21 02:58:26;;;;;;;15.63;13.35;;;;;;;18.98;87.26;101657.44;5096670;28;20044;-71
2022/07/21 03:01:01;;;;;;;18.05;14.32;;;;;;;18.97;86.80;101647.78;5099250;27;20047;-71
2022/07/21 03:03:29;;;;;;;16.48;13.73;;;;;;;19.02;86.96;101643.13;5108980;28;20520;-71
2022/07/21 03:05:55;;;;;;;18.45;14.68;;;;;;;19.02;86.89;101647.56;5098803;28;20024;-72
2022/07/21 03:08:21;;;;;;;15.57;13.85;;;;;;;19.00;87.50;101645.00;5105157;28;20031;-71
2022/07/21 03:10:47;;;;;;;16.23;13.57;;;;;;;19.09;86.54;101638.44;5102305;28;20466;-71
2022/07/21 03:13:13;;;;;;;22.95;16.00;;;;;;;19.01;87.21;101648.50;5094267;28;20035;-71
2022/07/21 03:15:39;;;;;;;18.13;14.52;;;;;;;19.04;86.88;101637.81;5096426;28;20052;-71
2022/07/21 03:18:04;;;;;;;16.60;13.57;;;;;;;19.03;87.06;101642.22;5115142;28;20120;-71
2022/07/21 03:20:32;;;;;;;18.25;15.10;;;;;;;19.07;86.93;101632.38;5103603;28;20563;-72
2022/07/21 03:22:57;;;;;;;16.55;13.35;;;;;;;19.09;87.16;101625.22;5105306;28;20070;-71
2022/07/21 03:25:24;;;;;;;17.50;14.68;;;;;;;19.07;86.91;101633.22;5105714;28;20062;-71
2022/07/21 03:27:49;;;;;;;16.10;13.90;;;;;;;19.09;86.79;101633.16;5108728;28;20478;-71
2022/07/21 03:30:16;;;;;;;18.90;15.73;;;;;;;19.06;86.08;101641.22;5098405;28;20032;-72
2022/07/21 03:32:43;;;;;;;17.58;15.02;;;;;;;18.99;87.18;101639.78;5093371;28;20032;-72
2022/07/21 03:35:10;;;;;;;19.33;14.68;;;;;;;19.00;87.23;101641.50;5096177;28;20891;-71
2022/07/21 03:37:52;;;;;;;16.80;14.60;;;;;;;19.00;86.52;101637.09;5097318;28;20024;-72
2022/07/21 03:40:22;;;;;;;17.60;14.88;;;;;;;19.00;86.74;101644.13;5086079;28;20098;-71
2022/07/21 03:42:48;;;;;;;18.50;14.43;;;;;;;18.99;86.86;101645.91;5104052;28;20020;-72
2022/07/21 03:45:14;;;;;;;21.73;15.82;;;;;;;19.04;86.95;101643.09;5108130;28;20103;-71
2022/07/21 03:47:39;;;;;;;20.20;14.55;;;;;;;19.06;85.78;101643.84;5098301;28;20099;-71
2022/07/21 03:50:05;;;;;;;19.83;14.65;;;;;;;19.06;86.37;101638.56;5102035;28;20039;-71
2022/07/21 03:52:31;;;;;;;18.25;13.50;;;;;;;19.10;86.52;101638.38;5094425;28;20028;-71
2022/07/21 03:55:08;;;;;;;16.80;14.48;;;;;;;19.03;86.83;101647.53;5108900;28;20070;-72
2022/07/21 03:57:38;;;;;;;16.17;13.32;;;;;;;19.05;86.33;101645.66;5102969;28;20030;-71
2022/07/21 04:00:07;;;;;;;17.65;14.07;;;;;;;19.02;86.35;101653.72;5094233;28;20561;-71
2022/07/21 04:02:32;;;;;;;19.77;13.23;;;;;;;19.04;86.36;101648.38;5101845;28;20027;-71
2022/07/21 04:04:57;;;;;;;17.58;13.80;;;;;;;19.02;86.31;101650.22;5096363;28;20021;-71
2022/07/21 04:07:23;;;;;;;18.75;12.95;;;;;;;19.01;86.21;101659.94;5102664;28;20391;-71
2022/07/21 04:09:48;;;;;;;16.60;13.15;;;;;;;18.94;86.46;101663.78;5093043;28;20024;-71
2022/07/21 04:12:13;;;;;;;20.83;13.38;;;;;;;18.89;87.05;101665.75;5086047;28;20029;-71
2022/07/21 04:14:39;;;;;;;20.98;14.23;;;;;;;18.93;87.35;101665.56;5087879;28;20480;-72
2022/07/21 04:17:04;;;;;;;17.00;12.50;;;;;;;18.95;86.81;101673.41;5105416;28;20161;-71
2022/07/21 04:19:29;;;;;;;17.05;13.15;;;;;;;18.97;87.46;101662.78;5114051;28;20051;-71
2022/07/21 04:21:54;;;;;;;15.07;12.35;;;;;;;18.90;87.21;101649.88;5096376;28;20028;-71
2022/07/21 04:24:20;;;;;;;15.27;12.65;;;;;;;18.95;88.15;101654.94;5094369;28;20023;-71
2022/07/21 04:26:45;;;;;;;17.00;13.88;;;;;;;18.71;90.45;101665.63;5093784;28;20032;-72
2022/07/21 04:29:10;;;;;;;20.17;13.65;;;;;;;18.54;92.27;101659.38;5096526;28;20020;-72
2022/07/21 04:31:35;;;;;;;19.58;14.68;;;;;;;18.29;92.51;101665.72;5096168;28;20028;-72
2022/07/21 04:34:01;;;;;;;21.98;14.77;;;;;;;18.19;94.69;101659.97;5106180;28;20058;-72
2022/07/21 04:36:26;;;;;;;17.50;13.88;;;;;;;18.17;94.99;101656.53;5097761;28;20020;-72
2022/07/21 04:38:51;;;;;;;18.35;14.88;;;;;;;18.18;95.47;101657.38;5093610;28;20618;-72
2022/07/21 04:41:16;;;;;;;19.30;14.75;;;;;;;18.22;95.37;101651.09;5094871;28;20027;-72
2022/07/21 04:43:42;;;;;;;19.60;14.85;;;;;;;18.27;94.82;101651.72;5101593;28;20035;-72
2022/07/21 04:46:07;;;;;;;17.35;15.30;;;;;;;18.28;94.18;101649.94;5099223;28;20023;-72
2022/07/21 04:48:32;;;;;;;19.90;14.35;;;;;;;18.31;94.69;101655.09;5096834;28;20028;-72
2022/07/21 04:50:58;;;;;;;21.48;15.05;;;;;;;18.33;94.30;101661.16;5107622;28;20023;-71
2022/07/21 04:53:23;;;;;;;16.35;14.32;;;;;;;18.40;94.14;101659.97;5111324;28;20035;-71
2022/07/21 04:55:49;;;;;;;20.23;14.55;;;;;;;18.46;93.62;101663.22;5102333;28;20063;-72
2022/07/21 04:58:15;;;;;;;15.98;14.25;;;;;;;18.47;94.05;101669.34;5111830;28;20031;-72
2022/07/21 05:00:40;;;;;;;17.88;14.23;;;;;;;18.48;94.41;101658.72;5112017;28;20042;-72
2022/07/21 05:03:05;;;;;;;21.30;14.80;;;;;;;18.51;93.61;101664.78;5111124;28;20035;-72
2022/07/21 05:05:31;;;;;;;17.17;14.68;;;;;;;18.55;93.25;101674.31;5097616;28;20031;-72
2022/07/21 05:07:56;;;;;;;20.63;13.60;;;;;;;18.63;92.61;101669.53;5100607;28;20091;-72
2022/07/21 05:10:21;;;;;;;18.38;14.07;;;;;;;18.68;93.26;101660.50;5093135;28;20834;-72
2022/07/21 05:12:47;;;;;;;18.95;13.75;;;;;;;18.69;91.64;101664.00;5101894;28;20039;-72
2022/07/21 05:15:12;;;;;;;17.10;13.32;;;;;;;18.71;91.64;101654.22;5098147;28;20031;-72
2022/07/21 05:17:39;;;;;;;16.88;12.75;;;;;;;18.84;91.27;101658.06;5090523;28;20032;-72
2022/07/21 05:20:05;;;;;;;17.92;12.35;;;;;;;18.90;91.65;101656.91;5096880;28;20058;-72
2022/07/21 05:22:30;;;;;;;17.38;12.57;;;;;;;19.00;91.08;101659.97;5094807;28;20031;-72
2022/07/21 05:24:56;;;;;;;15.73;12.38;;;;;;;19.09;90.80;101662.22;5092728;28;20024;-72
2022/07/21 05:27:21;;;;;;;18.33;13.43;;;;;;;19.04;89.49;101657.16;5090328;28;20027;-71
2022/07/21 05:29:46;;;;;;;17.17;12.48;;;;;;;19.08;89.35;101661.34;5110850;28;20151;-72
2022/07/21 05:32:12;;;;;;;15.35;12.02;;;;;;;19.10;89.01;101659.50;5104410;28;20130;-72
2022/07/21 05:34:37;;;;;;;16.17;11.63;;;;;;;19.06;88.79;101652.63;5101949;28;20089;-72
2022/07/21 05:37:02;;;;;;;14.55;11.60;;;;;;;19.11;89.83;101648.00;5099204;28;20024;-72
2022/07/21 05:39:28;;;;;;;16.70;11.20;;;;;;;19.14;88.98;101649.66;5099795;28;20024;-72
2022/07/21 05:41:54;;;;;;;14.88;11.73;;;;;;;19.15;88.11;101646.06;5096913;28;20114;-71
2022/07/21 05:44:19;;;;;;;17.02;13.15;;;;;;;19.20;87.32;101645.88;5106268;28;20118;-71
2022/07/21 05:46:44;;;;;;;18.20;11.05;;;;;;;19.21;87.62;101645.78;5097760;28;20499;-72
2022/07/21 05:49:09;;;;;;;18.35;13.32;;;;;;;19.26;87.37;101649.09;5097335;28;20028;-71
2022/07/21 05:51:35;;;;;;;17.80;12.82;;;;;;;19.36;86.82;101641.59;5093241;28;20488;-72
2022/07/21 05:54:00;;;;;;;18.73;11.95;;;;;;;19.48;86.50;101645.41;5107273;28;20023;-72
2022/07/21 05:56:25;;;;;;;15.05;11.85;;;;;;;19.59;85.94;101651.91;5098909;28;20036;-72
2022/07/21 05:58:50;;;;;;;18.80;11.77;;;;;;;19.72;85.36;101640.75;5098138;28;20037;-72
2022/07/21 06:01:16;;;;;;;20.75;14.27;;;;;;;19.72;84.14;101651.31;5081876;28;20051;-72
2022/07/21 06:03:43;;;;;;;20.77;12.98;;;;;;;19.76;83.69;101661.69;5098280;28;20063;-72
2022/07/21 06:06:09;;;;;;;20.00;13.13;;;;;;;19.82;84.76;101657.91;5092314;28;20032;-72
2022/07/21 06:08:37;;;;;;;20.65;14.55;;;;;;;19.80;83.46;101660.59;5105098;28;20034;-72
2022/07/21 06:11:02;;;;;;;25.23;15.52;;;;;;;19.90;83.66;101655.72;5094144;28;20023;-72
2022/07/21 06:13:27;;;;;;;20.90;15.20;;;;;;;19.95;83.49;101658.16;5095666;28;20039;-72
2022/07/21 06:15:53;;;;;;;23.60;15.50;;;;;;;20.06;82.76;101655.81;5094312;28;20016;-72
2022/07/21 06:18:18;;;;;;;27.65;16.50;;;;;;;20.30;81.81;101653.69;5099584;28;20469;-71
2022/07/21 06:20:43;;;;;;;28.63;16.67;;;;;;;20.51;80.53;101647.34;5103177;28;20043;-71
2022/07/21 06:23:08;;;;;;;24.75;16.42;;;;;;;20.73;79.41;101646.19;5097391;28;20470;-72
2022/07/21 06:25:34;;;;;;;31.58;17.02;;;;;;;20.91;77.85;101642.56;5104817;28;20039;-71
2022/07/21 06:27:59;;;;;;;27.13;17.73;;;;;;;21.17;78.06;101646.44;5096083;28;20027;-71
2022/07/21 06:30:24;;;;;;;23.60;16.95;;;;;;;21.31;76.92;101644.81;5083010;28;20027;-74
2022/07/21 06:32:50;;;;;;;24.80;16.50;;;;;;;21.38;76.54;101644.41;5095475;28;20041;-73
2022/07/21 06:35:15;;;;;;;24.73;16.55;;;;;;;21.50;75.82;101632.25;5105345;28;20099;-73
2022/07/21 06:37:45;;;;;;;26.13;17.08;;;;;;;21.69;75.24;101645.34;5092717;28;20498;-73
2022/07/21 06:40:11;;;;;;;23.92;16.75;;;;;;;21.74;75.09;101648.56;5107117;28;20028;-73
2022/07/21 06:42:36;;;;;;;25.67;16.33;;;;;;;21.77;74.83;101652.84;5096757;28;20031;-73
2022/07/21 06:45:02;;;;;;;23.70;16.42;;;;;;;21.78;73.73;101643.94;5087081;28;20036;-73
2022/07/21 06:47:27;;;;;;;22.60;16.45;;;;;;;21.78;73.07;101659.84;5081343;28;20028;-72
2022/07/21 06:49:53;;;;;;;22.05;16.98;;;;;;;21.76;74.42;101659.97;5103410;28;20383;-73
2022/07/21 06:52:18;;;;;;;20.27;15.90;;;;;;;21.71;74.08;101662.88;5092442;28;20055;-73
2022/07/21 06:54:43;;;;;;;22.80;16.45;;;;;;;21.65;75.12;101663.25;5082592;28;20072;-73
2022/07/21 06:57:08;;;;;;;23.95;17.60;;;;;;;21.54;73.94;101670.06;5085410;28;20437;-74
2022/07/21 06:59:34;;;;;;;22.98;15.88;;;;;;;21.34;74.29;101669.38;5087295;28;20027;-73
2022/07/21 07:01:59;;;;;;;21.90;16.48;;;;;;;21.29;74.81;101682.03;5089584;28;20036;-71
2022/07/21 07:04:25;;;;;;;27.48;16.35;;;;;;;21.12;75.82;101676.78;5092066;28;20517;-72
2022/07/21 07:06:52;;;;;;;23.02;16.63;;;;;;;20.91;75.62;101673.50;5095321;28;20034;-72
2022/07/21 07:09:18;;;;;;;22.58;16.50;;;;;;;20.79;76.88;101694.41;5110334;28;20076;-72
2022/07/21 07:11:43;;;;;;;24.35;16.17;;;;;;;20.60;79.01;101685.75;5107535;28;20024;-72
2022/07/21 07:14:08;;;;;;;24.08;16.15;;;;;;;20.48;78.70;101691.63;5082948;28;20020;-72
2022/07/21 07:16:34;;;;;;;24.60;17.02;;;;;;;20.35;79.07;101680.81;5086274;28;20111;-72
2022/07/21 07:18:59;;;;;;;26.65;17.50;;;;;;;20.23;79.51;101695.53;5080993;28;20029;-72
2022/07/21 07:21:24;;;;;;;26.55;17.08;;;;;;;20.09;80.06;101682.13;5085191;28;20045;-72
2022/07/21 07:23:50;;;;;;;25.50;16.58;;;;;;;20.11;80.96;101683.78;5088618;28;20103;-72
2022/07/21 07:26:15;;;;;;;23.83;16.20;;;;;;;20.05;81.37;101684.06;5087614;28;20028;-72
2022/07/21 07:28:40;;;;;;;25.58;16.73;;;;;;;20.10;81.72;101683.84;5088731;28;20028;-72
2022/07/21 07:31:05;;;;;;;23.70;16.80;;;;;;;20.20;80.83;101682.44;5089891;28;20039;-72
2022/07/21 07:33:31;;;;;;;23.58;16.17;;;;;;;20.31;81.26;101677.47;5089803;28;20074;-72
2022/07/21 07:35:57;;;;;;;23.35;16.90;;;;;;;20.09;83.47;101682.97;5086312;28;20040;-72
2022/07/21 07:38:22;;;;;;;26.05;17.83;;;;;;;19.69;87.09;101683.25;5085540;28;20024;-73
2022/07/21 07:40:47;;;;;;;31.98;19.92;;;;;;;19.28;91.22;101689.50;5089690;28;20115;-73
2022/07/21 07:43:13;;;;;;;29.02;19.00;;;;;;;19.05;96.67;101687.94;5090257;28;20070;-74
2022/07/21 07:45:38;;;;;;;28.10;17.90;;;;;;;18.87;99.13;101688.78;5091462;28;20028;-75
2022/07/21 07:48:04;;;;;;;23.40;15.82;;;;;;;18.65;100.00;101694.97;5093516;28;20027;-75
2022/07/21 07:50:30;;;;;;;25.15;16.17;;;;;;;18.65;100.00;101694.09;5092339;28;20042;-75
2022/07/21 07:52:55;;;;;;;25.77;15.63;;;;;;;18.48;100.00;101693.06;5091413;28;20546;-75
2022/07/21 07:55:20;;;;;;;23.50;16.38;;;;;;;18.40;100.00;101697.78;5093125;28;20047;-76
2022/07/21 07:57:46;;;;;;;23.60;17.10;;;;;;;18.28;100.00;101698.34;5092787;28;20028;-75
2022/07/21 08:00:18;;;;;;;23.70;17.10;;;;;;;18.28;100.00;101700.09;5093646;28;20047;-75
2022/07/21 08:02:43;;;;;;;26.27;15.45;;;;;;;18.28;100.00;101693.06;5090525;28;20173;-75
2022/07/21 08:05:09;;;;;;;23.30;15.57;;;;;;;18.33;100.00;101693.69;5092889;28;20111;-74
2022/07/21 08:07:37;;;;;;;27.58;15.45;;;;;;;18.21;100.00;101696.84;5102686;28;20028;-74
2022/07/21 08:10:05;;;;;;;24.90;15.75;;;;;;;18.14;100.00;101698.03;5113788;28;20027;-74
2022/07/21 08:12:30;;;;;;;21.00;14.93;;;;;;;18.09;100.00;101700.88;5113954;28;20051;-74
2022/07/21 08:14:55;;;;;;;18.42;14.23;;;;;;;18.05;100.00;101701.03;5095043;28;20101;-74
2022/07/21 08:17:21;;;;;;;18.95;14.35;;;;;;;18.17;100.00;101701.41;5089781;28;20042;-74
2022/07/21 08:19:46;;;;;;;17.17;12.77;;;;;;;18.16;100.00;101697.06;5105153;28;20031;-74
2022/07/21 08:22:11;;;;;;;16.58;13.15;;;;;;;18.11;100.00;101700.78;5110371;28;20028;-74
2022/07/21 08:24:37;;;;;;;15.05;11.57;;;;;;;18.03;100.00;101703.75;5097982;28;20352;-73
2022/07/21 08:27:03;;;;;;;13.40;10.82;;;;;;;17.98;100.00;101703.97;5094864;28;20030;-73
2022/07/21 08:29:28;;;;;;;13.85;11.38;;;;;;;17.99;100.00;101705.66;5109858;28;20028;-73
2022/07/21 08:31:54;;;;;;;15.43;10.77;;;;;;;18.11;100.00;101708.72;5105244;28;20490;-74
2022/07/21 08:34:19;;;;;;;14.60;11.13;;;;;;;18.13;100.00;101706.88;5102667;28;20425;-74
2022/07/21 08:36:44;;;;;;;14.90;11.80;;;;;;;18.11;100.00;101706.06;5093708;28;20024;-74
2022/07/21 08:39:09;;;;;;;14.85;11.32;;;;;;;18.09;100.00;101713.22;5098778;28;20027;-74
2022/07/21 08:41:36;;;;;;;17.27;12.27;;;;;;;18.16;100.00;101704.13;5102274;28;20421;-73
2022/07/21 08:44:01;;;;;;;16.15;11.77;;;;;;;18.18;100.00;101715.44;5095591;28;20024;-73
2022/07/21 08:46:28;;;;;;;17.48;13.25;;;;;;;18.10;100.00;101710.50;5101800;28;20382;-74
2022/07/21 08:48:54;;;;;;;21.23;13.30;;;;;;;18.09;100.00;101710.56;5101161;28;20374;-74
2022/07/21 08:51:19;;;;;;;19.95;13.32;;;;;;;18.14;100.00;101705.94;5112564;28;20024;-74
2022/07/21 08:53:48;;;;;;;17.55;12.82;;;;;;;18.14;100.00;101713.88;5113526;28;20028;-74
2022/07/21 08:56:14;;;;;;;19.02;13.45;;;;;;;18.18;100.00;101713.69;5104123;28;20398;-74
2022/07/21 08:58:39;;;;;;;18.08;14.73;;;;;;;18.21;100.00;101710.94;5111859;28;20463;-75
2022/07/21 09:01:05;;;;;;;23.90;14.88;;;;;;;18.31;100.00;101707.88;5101335;28;20496;-73
2022/07/21 09:03:32;;;;;;;20.70;14.82;;;;;;;18.30;100.00;101708.81;5096881;28;20019;-74
2022/07/21 09:06:00;;;;;;;23.30;15.43;;;;;;;18.39;100.00;101705.78;5098184;28;20027;-73
2022/07/21 09:08:31;;;;;;;22.83;15.43;;;;;;;18.40;100.00;101705.72;5112926;28;20099;-74
2022/07/21 09:11:13;;;;;;;19.75;14.85;;;;;;;18.45;100.00;101711.66;5101674;28;20023;-74
2022/07/21 09:13:40;;;;;;;22.02;15.57;;;;;;;18.48;100.00;101700.97;5091989;28;20028;-74
2022/07/21 09:16:06;;;;;;;21.88;16.00;;;;;;;18.46;100.00;101717.81;5095553;28;20047;-74
2022/07/21 09:18:31;;;;;;;19.95;14.02;;;;;;;18.40;100.00;101704.84;5110759;28;20457;-74
2022/07/21 09:20:58;;;;;;;22.17;15.32;;;;;;;18.40;100.00;101711.00;5100971;28;20068;-74
2022/07/21 09:23:24;;;;;;;18.23;14.30;;;;;;;18.32;100.00;101713.13;5106021;28;20501;-75
2022/07/21 09:25:55;;;;;;;17.20;12.88;;;;;;;18.28;100.00;101713.28;5112221;28;20024;-74
2022/07/21 09:28:24;;;;;;;14.63;12.13;;;;;;;18.21;100.00;101728.50;5096628;27;20388;-74
2022/07/21 09:30:55;;;;;;;14.90;12.02;;;;;;;18.11;100.00;101728.03;5082750;28;20084;-74
2022/07/21 09:33:26;;;;;;;17.13;11.88;;;;;;;18.04;100.00;101731.00;5086120;28;20028;-74
2022/07/21 09:36:15;;;;;;;14.85;11.63;;;;;;;18.01;100.00;101735.47;5091472;28;20387;-74
2022/07/21 09:38:50;;;;;;;25.17;13.30;;;;;;;18.00;100.00;101732.91;5083288;28;20032;-74
2022/07/21 09:41:18;;;;;;;16.50;12.40;;;;;;;18.03;100.00;101738.06;5083980;28;20024;-74
2022/07/21 09:43:44;;;;;;;14.82;11.77;;;;;;;18.06;100.00;101731.81;5085467;28;20055;-74
2022/07/21 09:46:18;;;;;;;12.13;10.68;;;;;;;18.07;100.00;101734.38;5089593;28;20019;-74
2022/07/21 09:48:49;;;;;;;14.60;11.68;;;;;;;18.11;100.00;101741.22;5085592;28;20150;-73
2022/07/21 09:51:31;;;;;;;12.57;10.82;;;;;;;18.10;100.00;101743.94;5087513;28;21372;-74
2022/07/21 09:53:59;;;;;;;14.35;10.75;;;;;;;18.06;100.00;101735.28;5089816;28;20103;-73
2022/07/21 09:56:29;;;;;;;12.75;9.57;;;;;;;17.92;100.00;101738.50;5090044;28;20059;-74
2022/07/21 09:58:56;;;;;;;12.50;10.43;;;;;;;17.99;100.00;101739.09;5089260;28;20024;-74
2022/07/21 10:01:22;;;;;;;12.35;10.43;;;;;;;18.04;100.00;101742.41;5088115;28;20028;-75
2022/07/21 10:03:49;;;;;;;14.88;11.35;;;;;;;18.16;100.00;101748.97;5088297;28;20398;-74
2022/07/21 10:06:16;;;;;;;17.02;11.30;;;;;;;18.11;100.00;101751.78;5097190;28;20134;-74
2022/07/21 10:08:43;;;;;;;14.57;10.68;;;;;;;18.13;100.00;101749.97;5092444;28;20035;-75
2022/07/21 10:11:09;;;;;;;11.75;10.10;;;;;;;18.09;100.00;101755.44;5098347;28;20106;-75
2022/07/21 10:13:35;;;;;;;15.52;11.45;;;;;;;18.17;100.00;101762.09;5083278;28;20612;-74
2022/07/21 10:16:01;;;;;;;15.10;11.30;;;;;;;18.16;100.00;101765.66;5083238;28;20032;-75
2022/07/21 10:18:30;;;;;;;12.18;10.93;;;;;;;18.15;100.00;101760.47;5086956;28;20047;-74
2022/07/21 10:21:18;;;;;;;12.43;10.68;;;;;;;18.23;100.00;101764.50;5088273;28;20248;-74
2022/07/21 10:23:44;;;;;;;13.48;10.93;;;;;;;18.15;100.00;101765.75;5085750;28;20032;-74
2022/07/21 10:26:11;;;;;;;12.98;11.27;;;;;;;18.13;100.00;101770.22;5085830;28;20050;-74
2022/07/21 10:28:37;;;;;;;14.30;11.73;;;;;;;18.14;100.00;101774.56;5085194;28;20507;-75
2022/07/21 10:31:18;;;;;;;14.75;13.18;;;;;;;18.18;100.00;101778.78;5085190;28;20068;-74
2022/07/21 10:33:47;;;;;;;16.48;12.90;;;;;;;18.36;100.00;101785.97;5084989;28;20449;-74
2022/07/21 10:36:28;;;;;;;17.90;14.73;;;;;;;18.66;100.00;101781.19;5084530;28;20040;-74
2022/07/21 10:39:23;;;;;;;17.42;13.82;;;;;;;18.95;100.00;101781.75;5085646;28;20153;-73
2022/07/21 10:41:56;;;;;;;15.88;13.68;;;;;;;19.01;100.00;101785.91;5090028;28;20045;-73
2022/07/21 10:44:27;;;;;;;15.70;13.60;;;;;;;18.81;100.00;101785.00;5097700;28;20024;-73
2022/07/21 10:47:02;;;;;;;15.10;13.35;;;;;;;18.56;100.00;101781.66;5088202;28;20402;-73
2022/07/21 10:49:43;;;;;;;19.55;14.50;;;;;;;18.39;100.00;101783.19;5088332;28;20077;-74
2022/07/21 10:52:38;;;;;;;14.27;12.88;;;;;;;18.21;100.00;101789.22;5075666;28;20028;-74
2022/07/21 10:55:09;;;;;;;22.25;14.30;;;;;;;18.11;100.00;101793.16;5090789;28;20063;-74
2022/07/21 10:57:34;;;;;;;22.13;15.18;;;;;;;17.96;100.00;101795.50;5091231;28;20039;-75
2022/07/21 11:00:27;;;;;;;19.10;14.20;;;;;;;17.92;100.00;101793.00;5093927;28;20510;-75
2022/07/21 11:03:01;;;;;;;17.60;14.47;;;;;;;17.94;100.00;101801.72;5089377;28;20032;-74
2022/07/21 11:05:29;;;;;;;18.38;14.82;;;;;;;17.92;100.00;101803.56;5095693;28;20127;-74
2022/07/21 11:08:18;;;;;;;17.55;13.25;;;;;;;17.85;100.00;101807.38;5107799;28;20016;-75